createdAt,value
2023-04-01T00:15:31.782Z,422
2023-04-01T00:35:31.892Z,422
2023-04-01T00:55:31.823Z,432
2023-04-01T01:15:31.712Z,434
2023-04-01T01:35:31.805Z,427
2023-04-01T01:55:31.832Z,428
2023-04-01T02:15:31.826Z,416
2023-04-01T02:35:31.550Z,419
2023-04-01T02:55:31.839Z,411
2023-04-01T03:15:31.673Z,432
2023-04-01T03:35:31.583Z,440
2023-04-01T03:55:31.798Z,440
2023-04-01T04:15:31.749Z,475
2023-04-01T04:35:31.647Z,439
2023-04-01T04:55:31.773Z,444
2023-04-01T05:15:31.643Z,450
2023-04-01T05:35:31.385Z,442
2023-04-01T05:55:31.719Z,489
2023-04-01T06:15:31.558Z,493
2023-04-01T06:35:31.481Z,540
2023-04-01T06:55:31.403Z,542
2023-04-01T07:15:31.378Z,553
2023-04-01T07:35:31.279Z,551
2023-04-01T07:55:31.398Z,558
2023-04-01T08:15:31.557Z,567
2023-04-01T08:35:32.704Z,550
2023-04-01T08:55:31.375Z,569
2023-04-01T09:15:31.254Z,569
2023-04-01T09:35:30.612Z,578
2023-04-01T09:55:31.207Z,556
2023-04-01T10:15:31.331Z,556
2023-04-01T10:35:31.140Z,573
2023-04-01T10:55:31.008Z,565
2023-04-01T11:15:31.024Z,563
2023-04-01T11:35:31.029Z,603
2023-04-01T11:55:30.987Z,612
2023-04-01T12:15:30.398Z,614
2023-04-01T12:35:30.930Z,592
2023-04-01T12:55:30.427Z,613
2023-04-01T13:15:30.848Z,618
2023-04-01T13:35:30.810Z,607
2023-04-01T13:55:30.803Z,577
2023-04-01T14:15:30.837Z,598
2023-04-01T14:35:30.825Z,618
2023-04-01T14:55:30.753Z,651
2023-04-01T15:15:30.728Z,641
2023-04-01T15:35:30.711Z,627
2023-04-01T15:55:30.692Z,626
2023-04-01T16:15:30.683Z,588
2023-04-01T16:35:30.637Z,603
2023-04-01T16:55:30.615Z,649
2023-04-01T17:15:30.387Z,659
2023-04-01T17:35:30.575Z,683
2023-04-01T17:55:30.037Z,680
2023-04-01T18:15:30.525Z,649
2023-04-01T18:55:30.483Z,661
2023-04-01T19:15:30.497Z,681
2023-04-01T19:35:30.428Z,697
2023-04-01T19:55:30.402Z,678
2023-04-01T20:15:30.395Z,681
2023-04-01T20:35:30.421Z,672
2023-04-01T20:55:30.357Z,706
2023-04-01T21:15:30.317Z,724
2023-04-01T21:35:30.302Z,718
2023-04-01T21:55:30.329Z,722
2023-04-01T22:15:30.263Z,696
2023-04-01T22:35:29.729Z,709
2023-04-01T22:55:30.208Z,722
2023-04-01T23:15:30.191Z,676
2023-04-01T23:35:29.989Z,693
2023-04-01T23:55:30.169Z,653
